Hauptseite
METAR-TAF:

METAR-TAF

Flughäfen :

Paganella, Italien

Breite: 46-09N, Länge: 011-02E, Höhe: 2125 m

Beobachtung

Neuester Wetterbericht von vor 41 Minuten, um 17:55 UTC
Wind 10 kt aus Süd/Südwest
Temperatur 6°C
Luftfeuchtigkeit 93%
Luftdruck 1010 hPa
Sichtweite weniger als 50 m
Leichtregen, Nebel

METAR: LIVP 301755Z 21010KT 0000 -RA FG VV/// 06/05 Q1010 RERA RMK MON INVIS VAL INVIS VIS MIN 0000

Zeit: 20:36 (18:36 UTC)


TAF: fehlend

Wetterbeobachtungen und Prognosen von mehr als 4000 Flughäfen (METAR und TAF Bericht).

Die verfügbaren Stationen werden durch gelbe und rote Markierungen auf der Karte dargestellt.

Führen Sie die Maus auf sie, um den Namen der Station zu sehen.

Darauf klicken, um die Beobachtung von Wetterbeobachtungen und Prognosen zu sehen.

Um die Karte zu ändern : klicken Sie auf den grünen Tasten mit einem schwarzen Kreuz Zum Vergrößern, auf den grünen Button mit einem Gedankenstrich zu verkleinern, oder auf die grünen Pfeile für benachbarte Karten.


METAR-TAF: